sensor_id;sensor_type;location;lat;lon;timestamp;P1;durP1;ratioP1;P2;durP2;ratioP2
6551;SDS011;3309;48.708;9.290;2024-03-08T00:01:02;0.80;;;0.80;;
6551;SDS011;3309;48.708;9.290;2024-03-08T00:03:28;0.90;;;0.90;;
6551;SDS011;3309;48.708;9.290;2024-03-08T00:05:54;0.90;;;0.90;;
6551;SDS011;3309;48.708;9.290;2024-03-08T00:08:21;0.80;;;0.80;;
6551;SDS011;3309;48.708;9.290;2024-03-08T00:10:47;0.90;;;0.90;;
6551;SDS011;3309;48.708;9.290;2024-03-08T00:13:13;0.80;;;0.80;;
6551;SDS011;3309;48.708;9.290;2024-03-08T00:15:39;0.90;;;0.90;;
6551;SDS011;3309;48.708;9.290;2024-03-08T00:18:06;0.80;;;0.80;;
6551;SDS011;3309;48.708;9.290;2024-03-08T00:20:32;0.80;;;0.80;;
6551;SDS011;3309;48.708;9.290;2024-03-08T00:22:58;0.93;;;0.93;;
6551;SDS011;3309;48.708;9.290;2024-03-08T00:25:24;0.97;;;0.97;;
6551;SDS011;3309;48.708;9.290;2024-03-08T00:27:58;0.90;;;0.90;;
6551;SDS011;3309;48.708;9.290;2024-03-08T00:30:24;1.00;;;1.00;;
6551;SDS011;3309;48.708;9.290;2024-03-08T00:32:50;0.90;;;0.90;;
6551;SDS011;3309;48.708;9.290;2024-03-08T00:35:16;0.80;;;0.80;;
6551;SDS011;3309;48.708;9.290;2024-03-08T00:37:43;0.90;;;0.90;;
6551;SDS011;3309;48.708;9.290;2024-03-08T00:40:13;1.00;;;1.00;;
6551;SDS011;3309;48.708;9.290;2024-03-08T00:42:39;0.90;;;0.90;;
6551;SDS011;3309;48.708;9.290;2024-03-08T00:45:06;0.80;;;0.80;;
6551;SDS011;3309;48.708;9.290;2024-03-08T00:47:32;0.90;;;0.90;;
6551;SDS011;3309;48.708;9.290;2024-03-08T00:49:58;0.90;;;0.90;;
6551;SDS011;3309;48.708;9.290;2024-03-08T00:52:24;0.97;;;0.97;;
6551;SDS011;3309;48.708;9.290;2024-03-08T00:54:50;0.90;;;0.90;;
6551;SDS011;3309;48.708;9.290;2024-03-08T00:57:16;0.97;;;0.97;;
6551;SDS011;3309;48.708;9.290;2024-03-08T00:59:42;0.90;;;0.90;;
6551;SDS011;3309;48.708;9.290;2024-03-08T01:02:08;0.97;;;0.97;;
6551;SDS011;3309;48.708;9.290;2024-03-08T01:04:34;0.90;;;0.90;;
6551;SDS011;3309;48.708;9.290;2024-03-08T01:07:00;0.90;;;0.90;;
6551;SDS011;3309;48.708;9.290;2024-03-08T01:09:26;0.90;;;0.90;;
6551;SDS011;3309;48.708;9.290;2024-03-08T01:11:53;0.90;;;0.90;;
6551;SDS011;3309;48.708;9.290;2024-03-08T01:14:20;0.97;;;0.97;;
6551;SDS011;3309;48.708;9.290;2024-03-08T01:16:48;0.83;;;0.83;;
6551;SDS011;3309;48.708;9.290;2024-03-08T01:19:14;0.80;;;0.80;;
6551;SDS011;3309;48.708;9.290;2024-03-08T01:21:41;0.90;;;0.90;;
6551;SDS011;3309;48.708;9.290;2024-03-08T01:24:07;0.90;;;0.90;;
6551;SDS011;3309;48.708;9.290;2024-03-08T01:26:33;0.97;;;0.97;;
6551;SDS011;3309;48.708;9.290;2024-03-08T01:29:02;0.90;;;0.90;;
6551;SDS011;3309;48.708;9.290;2024-03-08T01:31:29;0.90;;;0.90;;
6551;SDS011;3309;48.708;9.290;2024-03-08T01:33:55;0.90;;;0.90;;
6551;SDS011;3309;48.708;9.290;2024-03-08T01:36:21;0.90;;;0.90;;
6551;SDS011;3309;48.708;9.290;2024-03-08T01:38:48;0.90;;;0.90;;
6551;SDS011;3309;48.708;9.290;2024-03-08T01:41:14;0.80;;;0.80;;
6551;SDS011;3309;48.708;9.290;2024-03-08T01:43:42;0.90;;;0.90;;
6551;SDS011;3309;48.708;9.290;2024-03-08T01:46:08;1.03;;;1.03;;
6551;SDS011;3309;48.708;9.290;2024-03-08T01:48:35;0.90;;;0.90;;
6551;SDS011;3309;48.708;9.290;2024-03-08T01:51:01;0.90;;;0.90;;
6551;SDS011;3309;48.708;9.290;2024-03-08T01:53:27;0.90;;;0.90;;
6551;SDS011;3309;48.708;9.290;2024-03-08T01:55:56;0.90;;;0.90;;
6551;SDS011;3309;48.708;9.290;2024-03-08T01:58:24;0.80;;;0.80;;
6551;SDS011;3309;48.708;9.290;2024-03-08T02:00:50;1.00;;;1.00;;
6551;SDS011;3309;48.708;9.290;2024-03-08T02:03:16;0.90;;;0.90;;
6551;SDS011;3309;48.708;9.290;2024-03-08T02:05:44;0.90;;;0.90;;
6551;SDS011;3309;48.708;9.290;2024-03-08T02:08:09;1.00;;;1.00;;
6551;SDS011;3309;48.708;9.290;2024-03-08T02:10:44;1.00;;;1.00;;
6551;SDS011;3309;48.708;9.290;2024-03-08T02:13:10;0.90;;;0.90;;
6551;SDS011;3309;48.708;9.290;2024-03-08T02:15:52;0.90;;;0.90;;
6551;SDS011;3309;48.708;9.290;2024-03-08T02:18:18;0.90;;;0.90;;
6551;SDS011;3309;48.708;9.290;2024-03-08T02:20:48;0.90;;;0.90;;
6551;SDS011;3309;48.708;9.290;2024-03-08T02:23:14;1.00;;;1.00;;
6551;SDS011;3309;48.708;9.290;2024-03-08T02:25:40;0.90;;;0.90;;
6551;SDS011;3309;48.708;9.290;2024-03-08T02:28:10;0.90;;;0.90;;
6551;SDS011;3309;48.708;9.290;2024-03-08T02:30:36;1.00;;;1.00;;
6551;SDS011;3309;48.708;9.290;2024-03-08T02:33:04;0.90;;;0.90;;
6551;SDS011;3309;48.708;9.290;2024-03-08T02:35:30;1.00;;;1.00;;
6551;SDS011;3309;48.708;9.290;2024-03-08T02:37:56;0.90;;;0.90;;
6551;SDS011;3309;48.708;9.290;2024-03-08T02:40:23;0.90;;;0.90;;
6551;SDS011;3309;48.708;9.290;2024-03-08T02:42:49;0.90;;;0.90;;
6551;SDS011;3309;48.708;9.290;2024-03-08T02:45:15;1.00;;;1.00;;
6551;SDS011;3309;48.708;9.290;2024-03-08T02:47:42;0.90;;;0.90;;
6551;SDS011;3309;48.708;9.290;2024-03-08T02:50:08;0.90;;;0.90;;
6551;SDS011;3309;48.708;9.290;2024-03-08T02:52:34;1.00;;;1.00;;
6551;SDS011;3309;48.708;9.290;2024-03-08T02:55:00;0.97;;;0.97;;
6551;SDS011;3309;48.708;9.290;2024-03-08T02:57:26;0.93;;;0.93;;
6551;SDS011;3309;48.708;9.290;2024-03-08T02:59:55;0.90;;;0.90;;
6551;SDS011;3309;48.708;9.290;2024-03-08T03:02:21;0.90;;;0.90;;
6551;SDS011;3309;48.708;9.290;2024-03-08T03:04:48;0.90;;;0.90;;
6551;SDS011;3309;48.708;9.290;2024-03-08T03:07:14;1.00;;;1.00;;
6551;SDS011;3309;48.708;9.290;2024-03-08T03:09:40;0.80;;;0.80;;
6551;SDS011;3309;48.708;9.290;2024-03-08T03:12:06;0.90;;;0.90;;
6551;SDS011;3309;48.708;9.290;2024-03-08T03:14:35;0.97;;;0.97;;
6551;SDS011;3309;48.708;9.290;2024-03-08T03:17:03;0.90;;;0.90;;
6551;SDS011;3309;48.708;9.290;2024-03-08T03:19:29;0.90;;;0.90;;
6551;SDS011;3309;48.708;9.290;2024-03-08T03:21:55;0.90;;;0.90;;
6551;SDS011;3309;48.708;9.290;2024-03-08T03:24:22;0.90;;;0.90;;
6551;SDS011;3309;48.708;9.290;2024-03-08T03:26:48;1.00;;;1.00;;
6551;SDS011;3309;48.708;9.290;2024-03-08T03:29:14;0.80;;;0.80;;
6551;SDS011;3309;48.708;9.290;2024-03-08T03:31:42;1.00;;;1.00;;
6551;SDS011;3309;48.708;9.290;2024-03-08T03:34:11;0.90;;;0.90;;
6551;SDS011;3309;48.708;9.290;2024-03-08T03:36:38;0.90;;;0.90;;
6551;SDS011;3309;48.708;9.290;2024-03-08T03:39:08;0.90;;;0.90;;
6551;SDS011;3309;48.708;9.290;2024-03-08T03:41:45;0.90;;;0.90;;
6551;SDS011;3309;48.708;9.290;2024-03-08T03:44:11;0.97;;;0.97;;
6551;SDS011;3309;48.708;9.290;2024-03-08T03:46:37;0.90;;;0.90;;
6551;SDS011;3309;48.708;9.290;2024-03-08T03:49:03;0.90;;;0.90;;
6551;SDS011;3309;48.708;9.290;2024-03-08T03:51:29;1.00;;;1.00;;
6551;SDS011;3309;48.708;9.290;2024-03-08T03:53:55;0.90;;;0.90;;
6551;SDS011;3309;48.708;9.290;2024-03-08T03:56:25;0.90;;;0.90;;
6551;SDS011;3309;48.708;9.290;2024-03-08T03:58:52;0.87;;;0.87;;
6551;SDS011;3309;48.708;9.290;2024-03-08T04:01:18;0.90;;;0.90;;
6551;SDS011;3309;48.708;9.290;2024-03-08T04:03:44;1.00;;;1.00;;
6551;SDS011;3309;48.708;9.290;2024-03-08T04:06:10;0.90;;;0.90;;
6551;SDS011;3309;48.708;9.290;2024-03-08T04:08:36;0.90;;;0.90;;
6551;SDS011;3309;48.708;9.290;2024-03-08T04:11:02;1.00;;;1.00;;
6551;SDS011;3309;48.708;9.290;2024-03-08T04:13:28;0.90;;;0.90;;
6551;SDS011;3309;48.708;9.290;2024-03-08T04:15:54;0.90;;;0.90;;
6551;SDS011;3309;48.708;9.290;2024-03-08T04:18:20;1.00;;;1.00;;
6551;SDS011;3309;48.708;9.290;2024-03-08T04:20:46;0.83;;;0.83;;
6551;SDS011;3309;48.708;9.290;2024-03-08T04:23:12;0.90;;;0.90;;
6551;SDS011;3309;48.708;9.290;2024-03-08T04:25:38;0.90;;;0.90;;
6551;SDS011;3309;48.708;9.290;2024-03-08T04:28:06;0.90;;;0.90;;
6551;SDS011;3309;48.708;9.290;2024-03-08T04:30:32;0.87;;;0.87;;
6551;SDS011;3309;48.708;9.290;2024-03-08T04:32:58;0.80;;;0.80;;
6551;SDS011;3309;48.708;9.290;2024-03-08T04:35:24;1.00;;;1.00;;
6551;SDS011;3309;48.708;9.290;2024-03-08T04:37:50;1.00;;;1.00;;
6551;SDS011;3309;48.708;9.290;2024-03-08T04:40:16;0.90;;;0.90;;
6551;SDS011;3309;48.708;9.290;2024-03-08T04:42:43;0.90;;;0.90;;
6551;SDS011;3309;48.708;9.290;2024-03-08T04:45:09;1.00;;;1.00;;
6551;SDS011;3309;48.708;9.290;2024-03-08T04:47:38;0.90;;;0.90;;
6551;SDS011;3309;48.708;9.290;2024-03-08T04:50:05;0.90;;;0.90;;
6551;SDS011;3309;48.708;9.290;2024-03-08T04:52:31;0.83;;;0.83;;
6551;SDS011;3309;48.708;9.290;2024-03-08T04:54:57;0.90;;;0.90;;
6551;SDS011;3309;48.708;9.290;2024-03-08T04:57:23;1.00;;;1.00;;
6551;SDS011;3309;48.708;9.290;2024-03-08T04:59:51;1.00;;;1.00;;
6551;SDS011;3309;48.708;9.290;2024-03-08T05:02:16;1.00;;;1.00;;
6551;SDS011;3309;48.708;9.290;2024-03-08T05:04:43;0.93;;;0.93;;
6551;SDS011;3309;48.708;9.290;2024-03-08T05:07:08;0.80;;;0.80;;
6551;SDS011;3309;48.708;9.290;2024-03-08T05:09:34;0.90;;;0.90;;
6551;SDS011;3309;48.708;9.290;2024-03-08T05:12:01;1.00;;;1.00;;
6551;SDS011;3309;48.708;9.290;2024-03-08T05:14:27;0.90;;;0.90;;
6551;SDS011;3309;48.708;9.290;2024-03-08T05:16:53;0.97;;;0.97;;
6551;SDS011;3309;48.708;9.290;2024-03-08T05:19:19;0.90;;;0.90;;
6551;SDS011;3309;48.708;9.290;2024-03-08T05:21:46;0.90;;;0.90;;
6551;SDS011;3309;48.708;9.290;2024-03-08T05:24:12;0.80;;;0.80;;
6551;SDS011;3309;48.708;9.290;2024-03-08T05:26:39;1.00;;;1.00;;
6551;SDS011;3309;48.708;9.290;2024-03-08T05:29:05;0.90;;;0.90;;
6551;SDS011;3309;48.708;9.290;2024-03-08T05:31:48;0.90;;;0.90;;
6551;SDS011;3309;48.708;9.290;2024-03-08T05:34:14;1.00;;;1.00;;
6551;SDS011;3309;48.708;9.290;2024-03-08T05:36:41;0.90;;;0.90;;
6551;SDS011;3309;48.708;9.290;2024-03-08T05:39:09;1.00;;;1.00;;
6551;SDS011;3309;48.708;9.290;2024-03-08T05:41:36;1.00;;;1.00;;
6551;SDS011;3309;48.708;9.290;2024-03-08T05:44:03;1.00;;;1.00;;
6551;SDS011;3309;48.708;9.290;2024-03-08T05:46:28;0.97;;;0.97;;
6551;SDS011;3309;48.708;9.290;2024-03-08T05:48:55;1.00;;;1.00;;
6551;SDS011;3309;48.708;9.290;2024-03-08T05:51:23;0.90;;;0.90;;
6551;SDS011;3309;48.708;9.290;2024-03-08T05:53:49;1.00;;;1.00;;
6551;SDS011;3309;48.708;9.290;2024-03-08T05:56:15;0.90;;;0.90;;
6551;SDS011;3309;48.708;9.290;2024-03-08T05:58:41;1.00;;;1.00;;
6551;SDS011;3309;48.708;9.290;2024-03-08T06:01:07;1.00;;;1.00;;
6551;SDS011;3309;48.708;9.290;2024-03-08T06:03:35;0.90;;;0.90;;
6551;SDS011;3309;48.708;9.290;2024-03-08T06:06:01;0.90;;;0.90;;
6551;SDS011;3309;48.708;9.290;2024-03-08T06:08:27;0.90;;;0.90;;
6551;SDS011;3309;48.708;9.290;2024-03-08T06:10:55;0.90;;;0.90;;
6551;SDS011;3309;48.708;9.290;2024-03-08T06:13:21;0.90;;;0.90;;
6551;SDS011;3309;48.708;9.290;2024-03-08T06:15:47;0.97;;;0.97;;
6551;SDS011;3309;48.708;9.290;2024-03-08T06:18:13;0.97;;;0.97;;
6551;SDS011;3309;48.708;9.290;2024-03-08T06:20:40;0.90;;;0.90;;
6551;SDS011;3309;48.708;9.290;2024-03-08T06:23:08;0.90;;;0.90;;
6551;SDS011;3309;48.708;9.290;2024-03-08T06:25:34;1.00;;;1.00;;
6551;SDS011;3309;48.708;9.290;2024-03-08T06:28:00;0.90;;;0.90;;
6551;SDS011;3309;48.708;9.290;2024-03-08T06:30:26;0.90;;;0.90;;
6551;SDS011;3309;48.708;9.290;2024-03-08T06:32:52;0.80;;;0.80;;
6551;SDS011;3309;48.708;9.290;2024-03-08T06:35:18;0.90;;;0.90;;
6551;SDS011;3309;48.708;9.290;2024-03-08T06:37:45;0.90;;;0.90;;
6551;SDS011;3309;48.708;9.290;2024-03-08T06:40:11;0.80;;;0.80;;
6551;SDS011;3309;48.708;9.290;2024-03-08T06:42:41;0.90;;;0.90;;
6551;SDS011;3309;48.708;9.290;2024-03-08T06:45:07;0.80;;;0.80;;
6551;SDS011;3309;48.708;9.290;2024-03-08T06:47:35;0.90;;;0.90;;
6551;SDS011;3309;48.708;9.290;2024-03-08T06:50:04;0.70;;;0.70;;
6551;SDS011;3309;48.708;9.290;2024-03-08T06:52:30;0.80;;;0.80;;
6551;SDS011;3309;48.708;9.290;2024-03-08T06:54:57;0.90;;;0.90;;
6551;SDS011;3309;48.708;9.290;2024-03-08T06:57:26;0.80;;;0.80;;
6551;SDS011;3309;48.708;9.290;2024-03-08T06:59:54;0.90;;;0.90;;
6551;SDS011;3309;48.708;9.290;2024-03-08T07:02:22;0.80;;;0.80;;
6551;SDS011;3309;48.708;9.290;2024-03-08T07:04:49;0.90;;;0.90;;
6551;SDS011;3309;48.708;9.290;2024-03-08T07:07:15;0.80;;;0.80;;
6551;SDS011;3309;48.708;9.290;2024-03-08T07:09:44;0.83;;;0.83;;
6551;SDS011;3309;48.708;9.290;2024-03-08T07:12:11;0.90;;;0.90;;
6551;SDS011;3309;48.708;9.290;2024-03-08T07:14:38;0.90;;;0.90;;
6551;SDS011;3309;48.708;9.290;2024-03-08T07:17:10;0.80;;;0.80;;
6551;SDS011;3309;48.708;9.290;2024-03-08T07:19:36;0.80;;;0.80;;
6551;SDS011;3309;48.708;9.290;2024-03-08T07:22:03;0.80;;;0.80;;
6551;SDS011;3309;48.708;9.290;2024-03-08T07:24:29;0.90;;;0.90;;
6551;SDS011;3309;48.708;9.290;2024-03-08T07:27:05;0.90;;;0.90;;
6551;SDS011;3309;48.708;9.290;2024-03-08T07:29:32;0.90;;;0.90;;
6551;SDS011;3309;48.708;9.290;2024-03-08T07:31:59;0.90;;;0.90;;
6551;SDS011;3309;48.708;9.290;2024-03-08T07:34:44;0.80;;;0.80;;
6551;SDS011;3309;48.708;9.290;2024-03-08T07:37:10;0.77;;;0.77;;
6551;SDS011;3309;48.708;9.290;2024-03-08T07:39:39;0.90;;;0.90;;
6551;SDS011;3309;48.708;9.290;2024-03-08T07:42:05;0.80;;;0.80;;
6551;SDS011;3309;48.708;9.290;2024-03-08T07:44:31;0.80;;;0.80;;
6551;SDS011;3309;48.708;9.290;2024-03-08T07:46:58;0.90;;;0.90;;
6551;SDS011;3309;48.708;9.290;2024-03-08T07:49:24;0.80;;;0.80;;
6551;SDS011;3309;48.708;9.290;2024-03-08T07:51:50;1.00;;;1.00;;
6551;SDS011;3309;48.708;9.290;2024-03-08T07:54:16;0.80;;;0.80;;
6551;SDS011;3309;48.708;9.290;2024-03-08T07:56:42;0.70;;;0.70;;
6551;SDS011;3309;48.708;9.290;2024-03-08T07:59:08;0.80;;;0.80;;
6551;SDS011;3309;48.708;9.290;2024-03-08T08:01:37;0.80;;;0.80;;
6551;SDS011;3309;48.708;9.290;2024-03-08T08:04:03;0.80;;;0.80;;
6551;SDS011;3309;48.708;9.290;2024-03-08T08:06:29;0.80;;;0.80;;
6551;SDS011;3309;48.708;9.290;2024-03-08T08:08:58;0.90;;;0.90;;
6551;SDS011;3309;48.708;9.290;2024-03-08T08:11:26;0.90;;;0.90;;
6551;SDS011;3309;48.708;9.290;2024-03-08T08:13:53;0.80;;;0.80;;
6551;SDS011;3309;48.708;9.290;2024-03-08T08:16:19;0.80;;;0.80;;
6551;SDS011;3309;48.708;9.290;2024-03-08T08:18:45;0.90;;;0.90;;
6551;SDS011;3309;48.708;9.290;2024-03-08T08:21:12;0.90;;;0.90;;
6551;SDS011;3309;48.708;9.290;2024-03-08T08:23:38;0.80;;;0.80;;
6551;SDS011;3309;48.708;9.290;2024-03-08T08:26:04;0.90;;;0.90;;
6551;SDS011;3309;48.708;9.290;2024-03-08T08:28:32;0.90;;;0.90;;
6551;SDS011;3309;48.708;9.290;2024-03-08T08:30:58;0.80;;;0.80;;
6551;SDS011;3309;48.708;9.290;2024-03-08T08:33:24;0.70;;;0.70;;
6551;SDS011;3309;48.708;9.290;2024-03-08T08:35:50;0.80;;;0.80;;
6551;SDS011;3309;48.708;9.290;2024-03-08T08:38:19;0.50;;;0.50;;
6551;SDS011;3309;48.708;9.290;2024-03-08T08:40:45;0.80;;;0.80;;
6551;SDS011;3309;48.708;9.290;2024-03-08T08:43:13;0.70;;;0.70;;
6551;SDS011;3309;48.708;9.290;2024-03-08T08:45:39;0.90;;;0.90;;
6551;SDS011;3309;48.708;9.290;2024-03-08T08:48:06;0.80;;;0.80;;
6551;SDS011;3309;48.708;9.290;2024-03-08T08:50:32;0.80;;;0.80;;
6551;SDS011;3309;48.708;9.290;2024-03-08T08:52:58;0.80;;;0.80;;
6551;SDS011;3309;48.708;9.290;2024-03-08T08:55:24;0.80;;;0.80;;
6551;SDS011;3309;48.708;9.290;2024-03-08T08:57:50;0.70;;;0.70;;
6551;SDS011;3309;48.708;9.290;2024-03-08T09:00:17;0.80;;;0.80;;
6551;SDS011;3309;48.708;9.290;2024-03-08T09:02:45;0.97;;;0.97;;
6551;SDS011;3309;48.708;9.290;2024-03-08T09:05:11;0.83;;;0.83;;
6551;SDS011;3309;48.708;9.290;2024-03-08T09:07:39;0.83;;;0.83;;
6551;SDS011;3309;48.708;9.290;2024-03-08T09:10:05;0.90;;;0.90;;
6551;SDS011;3309;48.708;9.290;2024-03-08T09:12:34;0.80;;;0.80;;
6551;SDS011;3309;48.708;9.290;2024-03-08T09:15:00;0.80;;;0.80;;
6551;SDS011;3309;48.708;9.290;2024-03-08T09:17:26;0.80;;;0.80;;
6551;SDS011;3309;48.708;9.290;2024-03-08T09:19:52;0.80;;;0.80;;
6551;SDS011;3309;48.708;9.290;2024-03-08T09:22:19;0.90;;;0.90;;
6551;SDS011;3309;48.708;9.290;2024-03-08T09:24:45;0.80;;;0.80;;
6551;SDS011;3309;48.708;9.290;2024-03-08T09:27:11;0.90;;;0.90;;
6551;SDS011;3309;48.708;9.290;2024-03-08T09:29:38;0.80;;;0.80;;
6551;SDS011;3309;48.708;9.290;2024-03-08T09:32:05;0.80;;;0.80;;
6551;SDS011;3309;48.708;9.290;2024-03-08T09:34:31;0.80;;;0.80;;
6551;SDS011;3309;48.708;9.290;2024-03-08T09:36:57;0.80;;;0.80;;
6551;SDS011;3309;48.708;9.290;2024-03-08T09:39:22;0.80;;;0.80;;
6551;SDS011;3309;48.708;9.290;2024-03-08T09:41:50;0.80;;;0.80;;
6551;SDS011;3309;48.708;9.290;2024-03-08T09:46:51;0.90;;;0.90;;
6551;SDS011;3309;48.708;9.290;2024-03-08T09:49:19;0.70;;;0.70;;
6551;SDS011;3309;48.708;9.290;2024-03-08T09:51:45;0.70;;;0.70;;
6551;SDS011;3309;48.708;9.290;2024-03-08T09:54:12;0.80;;;0.80;;
6551;SDS011;3309;48.708;9.290;2024-03-08T09:56:38;0.80;;;0.80;;
6551;SDS011;3309;48.708;9.290;2024-03-08T09:59:06;0.80;;;0.80;;
6551;SDS011;3309;48.708;9.290;2024-03-08T10:01:50;0.80;;;0.80;;
6551;SDS011;3309;48.708;9.290;2024-03-08T10:04:17;0.90;;;0.90;;
6551;SDS011;3309;48.708;9.290;2024-03-08T10:06:43;0.80;;;0.80;;
6551;SDS011;3309;48.708;9.290;2024-03-08T10:09:09;0.80;;;0.80;;
6551;SDS011;3309;48.708;9.290;2024-03-08T10:11:37;0.80;;;0.80;;
6551;SDS011;3309;48.708;9.290;2024-03-08T10:14:04;0.73;;;0.73;;
6551;SDS011;3309;48.708;9.290;2024-03-08T10:16:31;0.80;;;0.80;;
6551;SDS011;3309;48.708;9.290;2024-03-08T10:18:57;0.80;;;0.80;;
6551;SDS011;3309;48.708;9.290;2024-03-08T10:21:23;0.90;;;0.90;;
6551;SDS011;3309;48.708;9.290;2024-03-08T10:23:50;0.80;;;0.80;;
6551;SDS011;3309;48.708;9.290;2024-03-08T10:26:16;0.90;;;0.90;;
6551;SDS011;3309;48.708;9.290;2024-03-08T10:28:44;0.80;;;0.80;;
6551;SDS011;3309;48.708;9.290;2024-03-08T10:31:10;0.70;;;0.70;;
6551;SDS011;3309;48.708;9.290;2024-03-08T10:33:38;0.90;;;0.90;;
6551;SDS011;3309;48.708;9.290;2024-03-08T10:36:05;0.70;;;0.70;;
6551;SDS011;3309;48.708;9.290;2024-03-08T10:38:32;0.80;;;0.80;;
6551;SDS011;3309;48.708;9.290;2024-03-08T10:41:00;0.70;;;0.70;;
6551;SDS011;3309;48.708;9.290;2024-03-08T10:43:27;0.80;;;0.80;;
6551;SDS011;3309;48.708;9.290;2024-03-08T10:46:07;0.70;;;0.70;;
6551;SDS011;3309;48.708;9.290;2024-03-08T10:48:43;0.70;;;0.70;;
6551;SDS011;3309;48.708;9.290;2024-03-08T10:51:09;0.70;;;0.70;;
6551;SDS011;3309;48.708;9.290;2024-03-08T10:53:38;0.70;;;0.70;;
6551;SDS011;3309;48.708;9.290;2024-03-08T10:56:06;0.80;;;0.80;;
6551;SDS011;3309;48.708;9.290;2024-03-08T10:58:34;0.77;;;0.77;;
6551;SDS011;3309;48.708;9.290;2024-03-08T11:01:01;0.70;;;0.70;;
6551;SDS011;3309;48.708;9.290;2024-03-08T11:08:48;0.77;;;0.77;;
6551;SDS011;3309;48.708;9.290;2024-03-08T11:11:27;0.70;;;0.70;;
6551;SDS011;3309;48.708;9.290;2024-03-08T11:13:56;0.70;;;0.70;;
6551;SDS011;3309;48.708;9.290;2024-03-08T11:18:58;0.70;;;0.70;;
6551;SDS011;3309;48.708;9.290;2024-03-08T11:21:46;0.77;;;0.77;;
6551;SDS011;3309;48.708;9.290;2024-03-08T11:24:13;0.70;;;0.70;;
6551;SDS011;3309;48.708;9.290;2024-03-08T11:26:41;0.60;;;0.60;;
6551;SDS011;3309;48.708;9.290;2024-03-08T11:32:04;0.60;;;0.60;;
6551;SDS011;3309;48.708;9.290;2024-03-08T11:34:31;0.60;;;0.60;;
6551;SDS011;3309;48.708;9.290;2024-03-08T11:36:58;0.60;;;0.60;;
6551;SDS011;3309;48.708;9.290;2024-03-08T11:39:24;0.60;;;0.60;;
6551;SDS011;3309;48.708;9.290;2024-03-08T11:41:51;0.70;;;0.70;;
6551;SDS011;3309;48.708;9.290;2024-03-08T11:44:17;0.60;;;0.60;;
6551;SDS011;3309;48.708;9.290;2024-03-08T11:46:43;0.60;;;0.60;;
6551;SDS011;3309;48.708;9.290;2024-03-08T11:49:13;0.60;;;0.60;;
6551;SDS011;3309;48.708;9.290;2024-03-08T11:51:39;0.60;;;0.60;;
6551;SDS011;3309;48.708;9.290;2024-03-08T11:54:06;0.70;;;0.70;;
6551;SDS011;3309;48.708;9.290;2024-03-08T11:56:32;0.60;;;0.60;;
6551;SDS011;3309;48.708;9.290;2024-03-08T11:58:59;0.60;;;0.60;;
6551;SDS011;3309;48.708;9.290;2024-03-08T12:01:26;0.70;;;0.70;;
6551;SDS011;3309;48.708;9.290;2024-03-08T12:03:53;0.50;;;0.50;;
6551;SDS011;3309;48.708;9.290;2024-03-08T12:06:19;0.50;;;0.50;;
6551;SDS011;3309;48.708;9.290;2024-03-08T12:08:47;0.50;;;0.50;;
6551;SDS011;3309;48.708;9.290;2024-03-08T12:11:14;0.40;;;0.40;;
6551;SDS011;3309;48.708;9.290;2024-03-08T12:13:43;0.50;;;0.50;;
6551;SDS011;3309;48.708;9.290;2024-03-08T12:16:15;0.50;;;0.50;;
6551;SDS011;3309;48.708;9.290;2024-03-08T12:18:42;0.53;;;0.53;;
6551;SDS011;3309;48.708;9.290;2024-03-08T12:21:10;0.50;;;0.50;;
6551;SDS011;3309;48.708;9.290;2024-03-08T12:23:39;0.40;;;0.40;;
6551;SDS011;3309;48.708;9.290;2024-03-08T12:28:38;0.50;;;0.50;;
6551;SDS011;3309;48.708;9.290;2024-03-08T12:31:06;0.40;;;0.40;;
6551;SDS011;3309;48.708;9.290;2024-03-08T12:33:35;0.50;;;0.50;;
6551;SDS011;3309;48.708;9.290;2024-03-08T12:36:01;0.50;;;0.50;;
6551;SDS011;3309;48.708;9.290;2024-03-08T12:38:32;0.40;;;0.40;;
6551;SDS011;3309;48.708;9.290;2024-03-08T12:41:01;0.50;;;0.50;;
6551;SDS011;3309;48.708;9.290;2024-03-08T12:43:27;0.40;;;0.40;;
6551;SDS011;3309;48.708;9.290;2024-03-08T12:45:55;0.40;;;0.40;;
6551;SDS011;3309;48.708;9.290;2024-03-08T12:48:21;0.43;;;0.43;;
6551;SDS011;3309;48.708;9.290;2024-03-08T12:50:47;0.40;;;0.40;;
6551;SDS011;3309;48.708;9.290;2024-03-08T12:53:14;0.40;;;0.40;;
6551;SDS011;3309;48.708;9.290;2024-03-08T12:55:40;0.50;;;0.50;;
6551;SDS011;3309;48.708;9.290;2024-03-08T12:58:06;0.43;;;0.43;;
6551;SDS011;3309;48.708;9.290;2024-03-08T13:00:33;0.60;;;0.60;;
6551;SDS011;3309;48.708;9.290;2024-03-08T13:03:01;0.40;;;0.40;;
6551;SDS011;3309;48.708;9.290;2024-03-08T13:05:27;0.50;;;0.50;;
6551;SDS011;3309;48.708;9.290;2024-03-08T13:07:53;0.40;;;0.40;;
6551;SDS011;3309;48.708;9.290;2024-03-08T13:10:19;0.50;;;0.50;;
6551;SDS011;3309;48.708;9.290;2024-03-08T13:12:46;0.53;;;0.53;;
6551;SDS011;3309;48.708;9.290;2024-03-08T13:15:12;0.40;;;0.40;;
6551;SDS011;3309;48.708;9.290;2024-03-08T13:17:45;0.40;;;0.40;;
6551;SDS011;3309;48.708;9.290;2024-03-08T13:20:11;0.47;;;0.47;;
6551;SDS011;3309;48.708;9.290;2024-03-08T13:22:45;0.60;;;0.60;;
6551;SDS011;3309;48.708;9.290;2024-03-08T13:25:13;0.50;;;0.50;;
6551;SDS011;3309;48.708;9.290;2024-03-08T13:27:42;0.53;;;0.53;;
6551;SDS011;3309;48.708;9.290;2024-03-08T13:30:08;0.50;;;0.50;;
6551;SDS011;3309;48.708;9.290;2024-03-08T13:32:43;0.60;;;0.60;;
6551;SDS011;3309;48.708;9.290;2024-03-08T13:35:09;0.57;;;0.57;;
6551;SDS011;3309;48.708;9.290;2024-03-08T13:37:42;0.50;;;0.50;;
6551;SDS011;3309;48.708;9.290;2024-03-08T13:40:08;0.60;;;0.60;;
6551;SDS011;3309;48.708;9.290;2024-03-08T13:42:43;0.60;;;0.60;;
6551;SDS011;3309;48.708;9.290;2024-03-08T13:45:09;0.50;;;0.50;;
6551;SDS011;3309;48.708;9.290;2024-03-08T13:47:36;0.60;;;0.60;;
6551;SDS011;3309;48.708;9.290;2024-03-08T13:50:02;0.60;;;0.60;;
6551;SDS011;3309;48.708;9.290;2024-03-08T13:52:29;0.53;;;0.53;;
6551;SDS011;3309;48.708;9.290;2024-03-08T13:54:55;0.50;;;0.50;;
6551;SDS011;3309;48.708;9.290;2024-03-08T13:57:21;0.50;;;0.50;;
6551;SDS011;3309;48.708;9.290;2024-03-08T13:59:50;0.70;;;0.70;;
6551;SDS011;3309;48.708;9.290;2024-03-08T14:02:16;0.60;;;0.60;;
6551;SDS011;3309;48.708;9.290;2024-03-08T14:04:42;0.53;;;0.53;;
6551;SDS011;3309;48.708;9.290;2024-03-08T14:07:08;0.60;;;0.60;;
6551;SDS011;3309;48.708;9.290;2024-03-08T14:09:36;0.50;;;0.50;;
6551;SDS011;3309;48.708;9.290;2024-03-08T14:12:07;0.60;;;0.60;;
6551;SDS011;3309;48.708;9.290;2024-03-08T14:14:33;0.60;;;0.60;;
6551;SDS011;3309;48.708;9.290;2024-03-08T14:17:03;0.53;;;0.53;;
6551;SDS011;3309;48.708;9.290;2024-03-08T14:19:29;0.60;;;0.60;;
6551;SDS011;3309;48.708;9.290;2024-03-08T14:21:59;0.60;;;0.60;;
6551;SDS011;3309;48.708;9.290;2024-03-08T14:24:25;0.60;;;0.60;;
6551;SDS011;3309;48.708;9.290;2024-03-08T14:26:51;0.60;;;0.60;;
6551;SDS011;3309;48.708;9.290;2024-03-08T14:29:18;0.60;;;0.60;;
6551;SDS011;3309;48.708;9.290;2024-03-08T14:31:44;0.70;;;0.70;;
6551;SDS011;3309;48.708;9.290;2024-03-08T14:34:10;0.50;;;0.50;;
6551;SDS011;3309;48.708;9.290;2024-03-08T14:36:36;0.70;;;0.70;;
6551;SDS011;3309;48.708;9.290;2024-03-08T14:39:03;0.60;;;0.60;;
6551;SDS011;3309;48.708;9.290;2024-03-08T14:41:29;0.50;;;0.50;;
6551;SDS011;3309;48.708;9.290;2024-03-08T14:43:55;0.50;;;0.50;;
6551;SDS011;3309;48.708;9.290;2024-03-08T14:46:22;0.50;;;0.50;;
6551;SDS011;3309;48.708;9.290;2024-03-08T14:48:51;0.60;;;0.60;;
6551;SDS011;3309;48.708;9.290;2024-03-08T14:51:18;0.50;;;0.50;;
6551;SDS011;3309;48.708;9.290;2024-03-08T14:53:46;0.60;;;0.60;;
6551;SDS011;3309;48.708;9.290;2024-03-08T14:56:12;0.53;;;0.53;;
6551;SDS011;3309;48.708;9.290;2024-03-08T14:58:41;0.50;;;0.50;;
6551;SDS011;3309;48.708;9.290;2024-03-08T15:01:08;0.57;;;0.57;;
6551;SDS011;3309;48.708;9.290;2024-03-08T15:03:35;0.60;;;0.60;;
6551;SDS011;3309;48.708;9.290;2024-03-08T15:06:02;0.50;;;0.50;;
6551;SDS011;3309;48.708;9.290;2024-03-08T15:08:33;0.60;;;0.60;;
6551;SDS011;3309;48.708;9.290;2024-03-08T15:10:59;0.60;;;0.60;;
6551;SDS011;3309;48.708;9.290;2024-03-08T15:13:25;0.50;;;0.50;;
6551;SDS011;3309;48.708;9.290;2024-03-08T15:16:03;0.50;;;0.50;;
6551;SDS011;3309;48.708;9.290;2024-03-08T15:18:31;0.60;;;0.60;;
6551;SDS011;3309;48.708;9.290;2024-03-08T15:21:01;0.70;;;0.70;;
6551;SDS011;3309;48.708;9.290;2024-03-08T15:23:28;0.60;;;0.60;;
6551;SDS011;3309;48.708;9.290;2024-03-08T15:25:54;0.60;;;0.60;;
6551;SDS011;3309;48.708;9.290;2024-03-08T15:28:20;0.50;;;0.50;;
6551;SDS011;3309;48.708;9.290;2024-03-08T15:30:51;0.50;;;0.50;;